createdAt,value
2019-04-27T00:01:15.747Z,42.13
2019-04-27T00:03:48.838Z,42.19
2019-04-27T00:06:23.703Z,42.14
2019-04-27T00:08:56.653Z,41.97
2019-04-27T00:11:33.189Z,41.77
2019-04-27T00:14:04.464Z,42.02
2019-04-27T00:16:53.597Z,42.13
2019-04-27T00:19:27.411Z,42.00
2019-04-27T00:22:09.790Z,42.29
2019-04-27T00:24:41.301Z,42.82
2019-04-27T00:27:13.420Z,43.38
2019-04-27T00:29:44.957Z,43.99
2019-04-27T00:32:16.666Z,44.36
2019-04-27T00:34:48.318Z,43.72
2019-04-27T00:37:36.905Z,43.95
2019-04-27T00:40:10.063Z,44.29
2019-04-27T00:42:41.724Z,44.49
2019-04-27T00:45:13.571Z,44.63
2019-04-27T00:47:56.444Z,44.65
2019-04-27T00:50:18.845Z,44.55
2019-04-27T00:52:50.353Z,44.10
2019-04-27T00:55:23.435Z,44.29
2019-04-27T00:58:13.162Z,44.67
2019-04-27T01:00:53.979Z,44.71
2019-04-27T01:03:43.120Z,45.64
2019-04-27T01:06:14.937Z,46.33
2019-04-27T01:08:46.192Z,47.07
2019-04-27T01:11:17.442Z,46.99
2019-04-27T01:13:48.690Z,47.87
2019-04-27T01:16:23.723Z,48.62
2019-04-27T01:18:53.076Z,48.77
2019-04-27T01:21:24.572Z,48.97
2019-04-27T01:23:56.843Z,48.86
2019-04-27T01:26:32.176Z,48.84
2019-04-27T01:29:14.588Z,49.17
2019-04-27T01:31:48.681Z,49.15
2019-04-27T01:34:20.054Z,48.78
2019-04-27T01:36:51.738Z,49.38
2019-04-27T01:39:23.469Z,49.73
2019-04-27T01:41:55.015Z,50.14
2019-04-27T01:44:26.260Z,50.54
2019-04-27T01:46:57.507Z,51.28
2019-04-27T01:49:29.627Z,51.26
2019-04-27T01:52:01.849Z,51.11
2019-04-27T01:54:33.528Z,51.19
2019-04-27T01:57:05.586Z,51.47
2019-04-27T01:59:38.618Z,51.60
2019-04-27T02:02:29.184Z,51.45
2019-04-27T02:05:11.609Z,51.61
2019-04-27T02:07:44.646Z,51.60
2019-04-27T02:10:15.904Z,51.07
2019-04-27T02:12:48.686Z,50.97
2019-04-27T02:15:20.038Z,51.00
2019-04-27T02:17:51.671Z,51.40
2019-04-27T02:20:22.910Z,51.25
2019-04-27T02:22:54.479Z,50.97
2019-04-27T02:25:26.119Z,51.17
2019-04-27T02:27:59.411Z,51.53
2019-04-27T02:30:32.606Z,52.25
2019-04-27T02:33:24.232Z,52.79
2019-04-27T02:35:55.780Z,53.10
2019-04-27T02:38:27.333Z,53.60
2019-04-27T02:40:59.999Z,53.69
2019-04-27T02:43:32.872Z,53.81
2019-04-27T02:46:04.551Z,53.76
2019-04-27T02:48:51.986Z,53.61
2019-04-27T02:51:13.533Z,53.59
2019-04-27T02:54:00.154Z,53.70
2019-04-27T02:56:31.354Z,53.71
2019-04-27T02:59:02.839Z,53.78
2019-04-27T03:01:35.986Z,54.32
2019-04-27T03:04:07.197Z,53.64
2019-04-27T03:06:39.772Z,54.16
2019-04-27T03:09:11.126Z,54.82
2019-04-27T03:11:42.902Z,54.53
2019-04-27T03:14:36.404Z,54.55
2019-04-27T03:17:19.900Z,54.57
2019-04-27T03:19:52.625Z,54.37
2019-04-27T03:22:25.886Z,54.14
2019-04-27T03:25:00.093Z,53.66
2019-04-27T03:27:33.184Z,53.47
2019-04-27T03:30:06.727Z,53.67
2019-04-27T03:32:42.528Z,54.04
2019-04-27T03:35:12.916Z,54.11
2019-04-27T03:37:44.520Z,53.74
2019-04-27T03:40:15.619Z,53.15
2019-04-27T03:42:50.247Z,52.86
2019-04-27T03:45:21.759Z,52.68
2019-04-27T03:47:53.400Z,52.60
2019-04-27T03:50:26.475Z,52.46
2019-04-27T03:53:10.302Z,52.11
2019-04-27T03:56:00.100Z,51.51
2019-04-27T03:58:39.790Z,51.00
2019-04-27T04:01:11.081Z,50.82
2019-04-27T04:03:44.069Z,50.55
2019-04-27T04:06:15.825Z,49.85
2019-04-27T04:08:49.875Z,49.81
2019-04-27T04:11:39.549Z,49.46
2019-04-27T04:14:20.237Z,49.47
2019-04-27T04:16:53.143Z,49.05
2019-04-27T04:19:24.716Z,48.97
2019-04-27T04:21:55.967Z,48.68
2019-04-27T04:24:29.368Z,48.76
2019-04-27T04:27:00.197Z,48.59
2019-04-27T04:29:31.609Z,48.44
2019-04-27T04:32:03.257Z,48.32
2019-04-27T04:34:34.857Z,48.40
2019-04-27T04:37:06.405Z,48.56
2019-04-27T04:39:40.233Z,48.49
2019-04-27T04:42:30.021Z,47.90
2019-04-27T04:45:06.046Z,47.35
2019-04-27T04:47:45.080Z,46.30
2019-04-27T04:50:16.628Z,46.30
2019-04-27T04:52:50.000Z,46.10
2019-04-27T04:55:21.273Z,45.74
2019-04-27T04:57:52.455Z,44.61
2019-04-27T05:00:24.988Z,44.61
2019-04-27T05:02:56.343Z,44.78
2019-04-27T05:05:29.336Z,45.70
2019-04-27T05:08:00.885Z,44.96
2019-04-27T05:10:32.424Z,45.00
2019-04-27T05:13:03.870Z,44.06
2019-04-27T05:15:35.018Z,44.21
2019-04-27T05:18:06.470Z,43.52
2019-04-27T05:20:39.813Z,43.02
2019-04-27T05:23:11.209Z,42.72
2019-04-27T05:25:42.400Z,42.05
2019-04-27T05:28:13.906Z,40.25
2019-04-27T05:30:45.460Z,40.69
2019-04-27T05:33:18.491Z,40.58
2019-04-27T05:35:50.298Z,40.49
2019-04-27T05:38:21.546Z,40.63
2019-04-27T05:40:54.257Z,39.74
2019-04-27T05:43:31.767Z,39.54
2019-04-27T05:46:35.552Z,38.50
2019-04-27T05:49:09.368Z,37.79
2019-04-27T05:51:41.876Z,37.61
2019-04-27T05:54:12.536Z,37.83
2019-04-27T05:56:44.294Z,37.34
2019-04-27T05:59:15.952Z,38.03
2019-04-27T06:01:49.328Z,37.37
2019-04-27T06:04:20.708Z,37.59
2019-04-27T06:06:52.463Z,37.95
2019-04-27T06:09:24.029Z,37.83
2019-04-27T06:11:55.761Z,37.70
2019-04-27T06:14:26.787Z,37.54
2019-04-27T06:16:59.657Z,36.86
2019-04-27T06:19:30.887Z,35.94
2019-04-27T06:22:02.484Z,36.01
2019-04-27T06:24:34.546Z,35.47
2019-04-27T06:27:06.102Z,34.06
2019-04-27T06:29:39.330Z,34.65
2019-04-27T06:32:10.886Z,35.36
2019-04-27T06:34:42.397Z,35.29
2019-04-27T06:37:13.594Z,35.60
2019-04-27T06:39:45.190Z,35.89
2019-04-27T06:42:18.713Z,35.82
2019-04-27T06:44:49.519Z,35.10
2019-04-27T06:47:20.977Z,34.57
2019-04-27T06:49:52.219Z,34.14
2019-04-27T06:52:23.473Z,33.15
2019-04-27T06:54:54.966Z,32.26
2019-04-27T06:57:26.576Z,32.15
2019-04-27T06:59:59.136Z,31.93
2019-04-27T07:02:30.580Z,30.85
2019-04-27T07:05:02.257Z,31.39
2019-04-27T07:07:33.909Z,30.58
2019-04-27T07:10:06.493Z,29.14
2019-04-27T07:12:40.716Z,29.17
2019-04-27T07:15:10.508Z,29.29
2019-04-27T07:17:41.965Z,29.52
2019-04-27T07:20:13.399Z,28.39
2019-04-27T07:22:45.022Z,28.74
2019-04-27T07:25:16.661Z,29.34
2019-04-27T07:27:49.358Z,28.37
2019-04-27T07:30:20.748Z,27.96
2019-04-27T07:32:52.096Z,27.76
2019-04-27T07:35:24.376Z,26.14
2019-04-27T07:37:56.356Z,26.97
2019-04-27T07:40:28.916Z,27.46
2019-04-27T07:43:03.258Z,26.87
2019-04-27T07:45:39.574Z,26.60
2019-04-27T07:48:10.931Z,26.08
2019-04-27T07:50:42.076Z,25.73
2019-04-27T07:53:13.320Z,25.43
2019-04-27T07:55:44.470Z,25.16
2019-04-27T07:58:15.611Z,25.26
2019-04-27T08:00:47.259Z,25.04
2019-04-27T08:03:19.535Z,23.89
2019-04-27T08:05:50.873Z,23.74
2019-04-27T08:08:22.304Z,23.75
2019-04-27T08:10:53.884Z,23.81
2019-04-27T08:13:25.435Z,23.60
2019-04-27T08:15:56.788Z,23.61
2019-04-27T08:18:29.863Z,24.45
2019-04-27T08:21:02.749Z,24.89
2019-04-27T08:23:34.261Z,25.11
2019-04-27T08:26:08.775Z,25.23
2019-04-27T08:28:54.031Z,25.29
2019-04-27T08:31:28.679Z,25.78
2019-04-27T08:34:00.100Z,25.83
2019-04-27T08:36:31.321Z,26.44
2019-04-27T08:39:03.264Z,26.42
2019-04-27T08:41:35.769Z,27.03
2019-04-27T08:44:07.206Z,27.33
2019-04-27T08:46:38.630Z,27.10
2019-04-27T08:49:10.193Z,27.74
2019-04-27T08:51:41.760Z,27.12
2019-04-27T08:54:13.210Z,27.10
2019-04-27T08:56:44.658Z,27.19
2019-04-27T08:59:15.709Z,27.62
2019-04-27T09:01:49.188Z,27.37
2019-04-27T09:04:20.235Z,27.03
2019-04-27T09:06:52.983Z,27.00
2019-04-27T09:09:34.876Z,26.74
2019-04-27T09:12:24.254Z,26.52
2019-04-27T09:15:06.592Z,27.07
2019-04-27T09:17:39.776Z,27.78
2019-04-27T09:20:12.575Z,27.17
2019-04-27T09:22:43.834Z,27.29
2019-04-27T09:25:15.256Z,26.89
2019-04-27T09:27:46.811Z,26.45
2019-04-27T09:30:19.085Z,26.83
2019-04-27T09:32:51.290Z,26.87
2019-04-27T09:35:22.904Z,26.71
2019-04-27T09:37:56.239Z,26.65
2019-04-27T09:40:27.116Z,26.08
2019-04-27T09:42:59.005Z,26.23
2019-04-27T09:45:30.448Z,26.62
2019-04-27T09:48:02.786Z,25.70
2019-04-27T09:50:36.061Z,25.86
2019-04-27T09:53:07.554Z,25.90
2019-04-27T09:55:39.109Z,25.70
2019-04-27T09:58:10.189Z,25.38
2019-04-27T10:00:41.699Z,25.45
2019-04-27T10:03:13.352Z,25.53
2019-04-27T10:05:45.969Z,25.29
2019-04-27T10:08:18.214Z,25.14
2019-04-27T10:10:49.756Z,25.23
2019-04-27T10:13:21.916Z,25.16
2019-04-27T10:15:53.163Z,25.10
2019-04-27T10:18:26.456Z,25.58
2019-04-27T10:21:01.918Z,25.51
2019-04-27T10:23:30.831Z,25.96
2019-04-27T10:26:01.932Z,26.38
2019-04-27T10:28:33.065Z,26.77
2019-04-27T10:31:04.327Z,27.49
2019-04-27T10:33:35.946Z,26.85
2019-04-27T10:36:07.223Z,26.88
2019-04-27T10:38:38.678Z,26.02
2019-04-27T10:41:10.224Z,26.61
2019-04-27T10:43:41.886Z,26.98
2019-04-27T10:46:13.559Z,27.37
2019-04-27T10:48:45.693Z,27.86
2019-04-27T10:51:17.252Z,28.07
2019-04-27T10:53:48.707Z,28.17
2019-04-27T10:56:20.255Z,26.95
2019-04-27T10:58:51.808Z,25.35
2019-04-27T11:01:23.459Z,24.97
2019-04-27T11:04:02.344Z,24.27
2019-04-27T11:06:38.455Z,23.85
2019-04-27T11:09:10.970Z,23.45
2019-04-27T11:11:42.064Z,22.82
2019-04-27T11:14:13.714Z,22.71
2019-04-27T11:16:45.914Z,22.32
2019-04-27T11:19:17.112Z,21.98
2019-04-27T11:21:48.743Z,21.52
2019-04-27T11:24:20.133Z,21.14
2019-04-27T11:26:51.381Z,21.37
2019-04-27T11:29:22.619Z,20.87
2019-04-27T11:31:55.536Z,20.51
2019-04-27T11:34:28.308Z,20.32
2019-04-27T11:37:01.375Z,20.23
2019-04-27T11:39:32.728Z,20.85
2019-04-27T11:42:04.380Z,20.48
2019-04-27T11:44:36.018Z,20.24
2019-04-27T11:47:07.691Z,20.12
2019-04-27T11:49:39.982Z,20.09
2019-04-27T11:52:11.618Z,20.08
2019-04-27T11:54:42.716Z,19.61
2019-04-27T11:57:14.304Z,19.64
2019-04-27T11:59:45.859Z,20.34
2019-04-27T12:02:17.586Z,20.33
2019-04-27T12:04:49.276Z,20.42
2019-04-27T12:07:20.622Z,19.90
2019-04-27T12:09:52.177Z,19.92
2019-04-27T12:12:26.112Z,19.13
2019-04-27T12:14:57.327Z,19.31
2019-04-27T12:17:29.265Z,18.97
2019-04-27T12:20:00.631Z,18.89
2019-04-27T12:22:32.286Z,19.08
2019-04-27T12:25:06.378Z,19.40
2019-04-27T12:27:45.804Z,19.92
2019-04-27T12:30:21.387Z,19.70
2019-04-27T12:32:52.629Z,19.86
2019-04-27T12:35:25.653Z,20.21
2019-04-27T12:37:57.062Z,19.93
2019-04-27T12:40:28.309Z,19.54
2019-04-27T12:42:59.761Z,19.27
2019-04-27T12:45:30.791Z,18.34
2019-04-27T12:48:02.415Z,17.89
2019-04-27T12:50:33.910Z,17.60
2019-04-27T12:53:07.908Z,17.56
2019-04-27T12:55:40.629Z,17.89
2019-04-27T12:58:19.890Z,17.49
2019-04-27T13:00:59.062Z,17.35
2019-04-27T13:03:33.473Z,17.02
2019-04-27T13:06:04.940Z,16.65
2019-04-27T13:08:37.607Z,16.72
2019-04-27T13:11:08.853Z,16.58
2019-04-27T13:13:40.517Z,16.35
2019-04-27T13:16:11.757Z,16.13
2019-04-27T13:18:43.070Z,16.54
2019-04-27T13:21:15.703Z,17.28
2019-04-27T13:24:00.916Z,17.64
2019-04-27T13:26:21.751Z,17.95
2019-04-27T13:28:53.312Z,18.41
2019-04-27T13:31:25.768Z,18.92
2019-04-27T13:33:56.975Z,18.51
2019-04-27T13:36:28.594Z,17.98
2019-04-27T13:39:00.236Z,17.87
2019-04-27T13:41:33.032Z,17.61
2019-04-27T13:44:06.423Z,17.21
2019-04-27T13:46:56.012Z,16.98
2019-04-27T13:49:47.715Z,16.34
2019-04-27T13:52:20.794Z,17.11
2019-04-27T13:54:52.355Z,17.17
2019-04-27T13:57:23.800Z,17.12
2019-04-27T13:59:55.355Z,17.10
2019-04-27T14:02:32.305Z,17.49
2019-04-27T14:05:00.100Z,17.93
2019-04-27T14:07:31.222Z,17.68
2019-04-27T14:10:02.787Z,17.71
2019-04-27T14:12:34.150Z,17.26
2019-04-27T14:15:05.687Z,17.56
2019-04-27T14:17:36.982Z,18.13
2019-04-27T14:20:09.731Z,18.26
2019-04-27T14:22:41.469Z,18.93
2019-04-27T14:25:12.822Z,19.02
2019-04-27T14:27:44.490Z,18.92
2019-04-27T14:30:17.331Z,19.05
2019-04-27T14:32:48.471Z,19.18
2019-04-27T14:35:19.848Z,19.37
2019-04-27T14:37:51.133Z,19.15
2019-04-27T14:40:22.748Z,19.00
2019-04-27T14:42:54.214Z,18.93
2019-04-27T14:45:26.301Z,18.67
2019-04-27T14:47:58.199Z,19.14
2019-04-27T14:50:30.392Z,19.05
2019-04-27T14:53:01.943Z,19.33
2019-04-27T14:55:33.292Z,19.25
2019-04-27T14:58:04.438Z,19.34
2019-04-27T15:00:35.887Z,19.18
2019-04-27T15:03:07.231Z,18.92
2019-04-27T15:05:38.887Z,19.19
2019-04-27T15:08:10.999Z,19.37
2019-04-27T15:10:42.298Z,19.75
2019-04-27T15:13:13.340Z,19.71
2019-04-27T15:15:45.205Z,19.50
2019-04-27T15:18:16.239Z,19.89
2019-04-27T15:20:48.099Z,20.29
2019-04-27T15:23:20.139Z,20.23
2019-04-27T15:25:51.514Z,20.05
2019-04-27T15:28:24.684Z,20.41
2019-04-27T15:31:00.965Z,20.74
2019-04-27T15:33:53.367Z,21.58
2019-04-27T15:36:30.845Z,22.50
2019-04-27T15:39:07.865Z,23.17
2019-04-27T15:42:03.389Z,22.84
2019-04-27T15:44:36.455Z,22.72
2019-04-27T15:47:10.333Z,22.95
2019-04-27T15:49:45.059Z,23.05
2019-04-27T15:52:12.264Z,23.38
2019-04-27T15:54:44.534Z,23.76
2019-04-27T15:57:18.609Z,24.57
2019-04-27T15:59:48.968Z,25.44
2019-04-27T16:02:20.552Z,26.07
2019-04-27T16:04:53.536Z,26.75
2019-04-27T16:07:29.888Z,27.32
2019-04-27T16:10:00.207Z,27.65
2019-04-27T16:12:31.135Z,28.40
2019-04-27T16:15:05.039Z,29.03
2019-04-27T16:17:35.585Z,29.17
2019-04-27T16:20:07.305Z,29.41
2019-04-27T16:22:39.074Z,29.80
2019-04-27T16:25:12.251Z,30.22
2019-04-27T16:27:43.933Z,30.55
2019-04-27T16:30:18.044Z,30.67
2019-04-27T16:32:48.260Z,30.95
2019-04-27T16:35:22.945Z,31.30
2019-04-27T16:38:00.278Z,31.54
2019-04-27T16:40:31.929Z,31.86
2019-04-27T16:43:03.384Z,32.12
2019-04-27T16:45:38.792Z,32.42
2019-04-27T16:48:10.379Z,32.66
2019-04-27T16:50:41.619Z,32.85
2019-04-27T16:53:14.189Z,33.11
2019-04-27T16:55:45.345Z,33.40
2019-04-27T16:58:20.553Z,33.63
2019-04-27T17:00:49.988Z,33.81
2019-04-27T17:03:21.302Z,34.09
2019-04-27T17:05:52.883Z,34.45
2019-04-27T17:08:26.843Z,34.90
2019-04-27T17:11:07.829Z,35.13
2019-04-27T17:13:33.280Z,35.30
2019-04-27T17:16:31.059Z,35.71
2019-04-27T17:19:04.920Z,36.45
2019-04-27T17:21:38.686Z,36.66
2019-04-27T17:24:09.916Z,36.91
2019-04-27T17:26:43.446Z,37.09
2019-04-27T17:29:20.496Z,37.41
2019-04-27T17:31:55.132Z,37.67
2019-04-27T17:34:26.412Z,37.53
2019-04-27T17:36:59.074Z,37.53
2019-04-27T17:39:30.679Z,37.52
2019-04-27T17:42:01.942Z,37.66
2019-04-27T17:44:33.549Z,37.69
2019-04-27T17:47:05.134Z,37.81
2019-04-27T17:49:38.177Z,37.89
2019-04-27T17:52:13.043Z,38.20
2019-04-27T17:54:47.323Z,38.37
2019-04-27T17:57:17.892Z,38.34
2019-04-27T17:59:51.417Z,38.57
2019-04-27T18:02:21.933Z,38.41
2019-04-27T18:04:54.109Z,38.60
2019-04-27T18:07:25.540Z,39.18
2019-04-27T18:09:58.387Z,39.27
2019-04-27T18:12:29.673Z,39.62
2019-04-27T18:15:01.117Z,39.79
2019-04-27T18:17:33.265Z,40.26
2019-04-27T18:20:09.349Z,40.44
2019-04-27T18:22:45.349Z,40.70
2019-04-27T18:25:18.669Z,40.74
2019-04-27T18:28:01.000Z,40.79
2019-04-27T18:30:38.636Z,41.11
2019-04-27T18:33:08.767Z,41.01
2019-04-27T18:35:40.373Z,40.74
2019-04-27T18:38:11.640Z,40.55
2019-04-27T18:40:42.758Z,40.39
2019-04-27T18:43:14.561Z,40.38
2019-04-27T18:45:46.023Z,40.49
2019-04-27T18:48:18.827Z,40.72
2019-04-27T18:50:57.158Z,40.73
2019-04-27T18:53:30.450Z,41.28
2019-04-27T18:56:05.306Z,41.71
2019-04-27T18:58:35.714Z,41.81
2019-04-27T19:01:08.605Z,42.11
2019-04-27T19:03:40.146Z,42.37
2019-04-27T19:06:12.205Z,42.14
2019-04-27T19:08:43.458Z,41.89
2019-04-27T19:11:15.109Z,42.50
2019-04-27T19:13:48.729Z,41.99
2019-04-27T19:16:22.212Z,41.92
2019-04-27T19:18:52.526Z,41.91
2019-04-27T19:21:24.079Z,41.91
2019-04-27T19:23:55.226Z,41.71
2019-04-27T19:26:28.943Z,41.66
2019-04-27T19:29:01.895Z,41.49
2019-04-27T19:31:35.001Z,41.52
2019-04-27T19:34:06.654Z,41.56
2019-04-27T19:36:38.650Z,41.66
2019-04-27T19:39:13.898Z,42.05
2019-04-27T19:41:59.958Z,42.20
2019-04-27T19:44:19.624Z,42.40
2019-04-27T19:46:50.727Z,42.22
2019-04-27T19:49:21.911Z,42.17
2019-04-27T19:51:53.263Z,42.48
2019-04-27T19:54:24.509Z,42.11
2019-04-27T19:56:56.154Z,41.66
2019-04-27T19:59:32.236Z,41.53
2019-04-27T20:02:05.512Z,41.51
2019-04-27T20:04:38.290Z,41.65
2019-04-27T20:07:10.588Z,41.46
2019-04-27T20:09:43.544Z,41.34
2019-04-27T20:12:14.823Z,41.18
2019-04-27T20:14:58.641Z,41.22
2019-04-27T20:17:31.299Z,41.28
2019-04-27T20:20:04.293Z,41.38
2019-04-27T20:22:35.646Z,41.43
2019-04-27T20:25:07.277Z,41.61
2019-04-27T20:27:48.741Z,41.59
2019-04-27T20:30:13.265Z,41.57
2019-04-27T20:32:45.829Z,41.57
2019-04-27T20:35:17.501Z,42.19
2019-04-27T20:37:49.162Z,42.69
2019-04-27T20:40:21.784Z,42.61
2019-04-27T20:42:53.387Z,42.57
2019-04-27T20:45:24.928Z,42.96
2019-04-27T20:47:56.594Z,43.17
2019-04-27T20:50:27.943Z,43.14
2019-04-27T20:53:01.136Z,43.02
2019-04-27T20:55:32.478Z,43.18
2019-04-27T20:58:04.131Z,43.17
2019-04-27T21:00:36.150Z,43.37
2019-04-27T21:03:14.486Z,43.86
2019-04-27T21:05:51.140Z,43.77
2019-04-27T21:08:24.166Z,43.85
2019-04-27T21:10:55.622Z,43.95
2019-04-27T21:13:26.799Z,44.06
2019-04-27T21:15:58.298Z,44.03
2019-04-27T21:18:31.702Z,44.19
2019-04-27T21:21:03.164Z,44.11
2019-04-27T21:23:34.567Z,44.03
2019-04-27T21:26:06.165Z,44.15
2019-04-27T21:28:37.611Z,43.91
2019-04-27T21:31:08.841Z,44.17
2019-04-27T21:33:40.951Z,43.89
2019-04-27T21:36:12.577Z,44.25
2019-04-27T21:38:43.806Z,44.09
2019-04-27T21:41:15.272Z,43.94
2019-04-27T21:43:46.718Z,43.82
2019-04-27T21:46:18.180Z,43.44
2019-04-27T21:48:50.749Z,43.25
2019-04-27T21:51:22.103Z,43.29
2019-04-27T21:54:13.031Z,43.08
2019-04-27T21:56:44.556Z,42.78
2019-04-27T21:59:16.005Z,42.03
2019-04-27T22:01:48.231Z,41.94
2019-04-27T22:04:19.735Z,42.20
2019-04-27T22:06:51.404Z,42.16
2019-04-27T22:09:23.137Z,41.98
2019-04-27T22:11:54.492Z,41.82
2019-04-27T22:14:26.242Z,41.83
2019-04-27T22:16:57.527Z,41.82
2019-04-27T22:19:30.917Z,41.63
2019-04-27T22:22:03.517Z,41.67
2019-04-27T22:24:42.819Z,41.86
2019-04-27T22:27:12.711Z,41.67
2019-04-27T22:29:44.371Z,42.01
2019-04-27T22:32:15.464Z,41.95
2019-04-27T22:34:47.257Z,41.89
2019-04-27T22:37:18.508Z,42.16
2019-04-27T22:39:54.264Z,42.21
2019-04-27T22:42:43.529Z,42.17
2019-04-27T22:45:16.717Z,42.44
2019-04-27T22:47:48.299Z,42.66
2019-04-27T22:50:21.080Z,42.55
2019-04-27T22:52:52.279Z,42.45
2019-04-27T22:55:23.642Z,42.92
2019-04-27T22:57:56.867Z,42.68
2019-04-27T23:00:31.039Z,42.52
2019-04-27T23:03:03.947Z,42.80
2019-04-27T23:05:35.583Z,43.08
2019-04-27T23:08:07.036Z,43.00
2019-04-27T23:10:38.484Z,43.25
2019-04-27T23:13:11.236Z,43.23
2019-04-27T23:15:44.063Z,43.43
2019-04-27T23:18:15.804Z,43.50
2019-04-27T23:20:47.459Z,43.86
2019-04-27T23:23:18.966Z,44.00
2019-04-27T23:25:51.321Z,43.75
2019-04-27T23:28:22.633Z,44.01
2019-04-27T23:31:02.498Z,43.98
2019-04-27T23:33:33.932Z,44.31
2019-04-27T23:36:05.547Z,44.22
2019-04-27T23:38:37.055Z,44.22
2019-04-27T23:41:08.630Z,44.27
2019-04-27T23:43:40.136Z,44.39
2019-04-27T23:46:11.864Z,44.67
2019-04-27T23:48:43.383Z,45.31
2019-04-27T23:51:22.371Z,45.12
2019-04-27T23:53:53.929Z,45.29
2019-04-27T23:56:25.382Z,45.38
2019-04-27T23:58:57.027Z,45.17
